sensor_id;sensor_type;location;lat;lon;timestamp;P1;durP1;ratioP1;P2;durP2;ratioP2
74538;SDS011;66042;51.090;-115.340;2023-12-28T00:02:05;1.80;;;1.00;;
74538;SDS011;66042;51.090;-115.340;2023-12-28T00:04:32;0.90;;;0.40;;
74538;SDS011;66042;51.090;-115.340;2023-12-28T00:07:02;2.40;;;0.80;;
74538;SDS011;66042;51.090;-115.340;2023-12-28T00:09:30;1.50;;;0.60;;
74538;SDS011;66042;51.090;-115.340;2023-12-28T00:11:58;5.10;;;0.70;;
74538;SDS011;66042;51.090;-115.340;2023-12-28T00:14:25;3.50;;;0.80;;
74538;SDS011;66042;51.090;-115.340;2023-12-28T00:16:52;4.50;;;1.90;;
74538;SDS011;66042;51.090;-115.340;2023-12-28T00:19:19;4.10;;;1.50;;
74538;SDS011;66042;51.090;-115.340;2023-12-28T00:21:46;3.50;;;0.90;;
74538;SDS011;66042;51.090;-115.340;2023-12-28T00:24:15;1.10;;;0.60;;
74538;SDS011;66042;51.090;-115.340;2023-12-28T00:26:47;0.90;;;0.60;;
74538;SDS011;66042;51.090;-115.340;2023-12-28T00:29:14;1.40;;;0.50;;
74538;SDS011;66042;51.090;-115.340;2023-12-28T00:31:41;1.30;;;0.60;;
74538;SDS011;66042;51.090;-115.340;2023-12-28T00:34:08;1.70;;;0.60;;
74538;SDS011;66042;51.090;-115.340;2023-12-28T00:36:35;2.10;;;0.70;;
74538;SDS011;66042;51.090;-115.340;2023-12-28T00:39:02;1.00;;;0.40;;
74538;SDS011;66042;51.090;-115.340;2023-12-28T00:41:29;2.70;;;1.00;;
74538;SDS011;66042;51.090;-115.340;2023-12-28T00:43:56;0.80;;;0.40;;
74538;SDS011;66042;51.090;-115.340;2023-12-28T00:46:23;1.70;;;0.70;;
74538;SDS011;66042;51.090;-115.340;2023-12-28T00:48:50;2.20;;;0.60;;
74538;SDS011;66042;51.090;-115.340;2023-12-28T00:51:17;2.60;;;0.80;;
74538;SDS011;66042;51.090;-115.340;2023-12-28T00:53:46;1.50;;;0.70;;
74538;SDS011;66042;51.090;-115.340;2023-12-28T00:56:13;1.50;;;0.60;;
74538;SDS011;66042;51.090;-115.340;2023-12-28T00:58:40;2.00;;;1.00;;
74538;SDS011;66042;51.090;-115.340;2023-12-28T01:01:09;1.70;;;0.50;;
74538;SDS011;66042;51.090;-115.340;2023-12-28T01:03:36;1.30;;;0.50;;
74538;SDS011;66042;51.090;-115.340;2023-12-28T01:06:05;0.90;;;0.50;;
74538;SDS011;66042;51.090;-115.340;2023-12-28T01:08:31;0.80;;;0.40;;
74538;SDS011;66042;51.090;-115.340;2023-12-28T01:11:02;1.10;;;0.70;;
74538;SDS011;66042;51.090;-115.340;2023-12-28T01:13:29;1.80;;;0.80;;
74538;SDS011;66042;51.090;-115.340;2023-12-28T01:15:56;1.20;;;0.70;;
74538;SDS011;66042;51.090;-115.340;2023-12-28T01:18:24;1.40;;;0.50;;
74538;SDS011;66042;51.090;-115.340;2023-12-28T01:20:51;0.80;;;0.40;;
74538;SDS011;66042;51.090;-115.340;2023-12-28T01:23:18;1.20;;;0.80;;
74538;SDS011;66042;51.090;-115.340;2023-12-28T01:25:45;1.10;;;0.70;;
74538;SDS011;66042;51.090;-115.340;2023-12-28T01:28:12;0.80;;;0.50;;
74538;SDS011;66042;51.090;-115.340;2023-12-28T01:30:39;1.10;;;0.70;;
74538;SDS011;66042;51.090;-115.340;2023-12-28T01:33:06;2.50;;;0.60;;
74538;SDS011;66042;51.090;-115.340;2023-12-28T01:35:33;1.50;;;0.70;;
74538;SDS011;66042;51.090;-115.340;2023-12-28T01:38:00;1.90;;;0.80;;
74538;SDS011;66042;51.090;-115.340;2023-12-28T01:40:28;2.00;;;1.10;;
74538;SDS011;66042;51.090;-115.340;2023-12-28T01:42:55;1.10;;;0.50;;
74538;SDS011;66042;51.090;-115.340;2023-12-28T01:45:22;3.20;;;0.80;;
74538;SDS011;66042;51.090;-115.340;2023-12-28T01:47:49;1.50;;;0.70;;
74538;SDS011;66042;51.090;-115.340;2023-12-28T01:50:18;2.40;;;0.80;;
74538;SDS011;66042;51.090;-115.340;2023-12-28T01:52:46;3.10;;;0.60;;
74538;SDS011;66042;51.090;-115.340;2023-12-28T01:55:15;1.00;;;0.60;;
74538;SDS011;66042;51.090;-115.340;2023-12-28T01:57:43;1.80;;;0.70;;
74538;SDS011;66042;51.090;-115.340;2023-12-28T02:00:11;4.70;;;1.50;;
74538;SDS011;66042;51.090;-115.340;2023-12-28T02:02:38;9.90;;;3.00;;
74538;SDS011;66042;51.090;-115.340;2023-12-28T02:05:08;7.70;;;2.50;;
74538;SDS011;66042;51.090;-115.340;2023-12-28T02:07:41;5.30;;;1.50;;
74538;SDS011;66042;51.090;-115.340;2023-12-28T02:10:08;5.70;;;1.70;;
74538;SDS011;66042;51.090;-115.340;2023-12-28T02:12:35;4.20;;;1.10;;
74538;SDS011;66042;51.090;-115.340;2023-12-28T02:15:02;2.10;;;0.90;;
74538;SDS011;66042;51.090;-115.340;2023-12-28T02:17:36;2.50;;;0.90;;
74538;SDS011;66042;51.090;-115.340;2023-12-28T02:20:25;5.50;;;1.00;;
74538;SDS011;66042;51.090;-115.340;2023-12-28T02:22:56;1.40;;;0.80;;
74538;SDS011;66042;51.090;-115.340;2023-12-28T02:25:24;11.10;;;3.70;;
74538;SDS011;66042;51.090;-115.340;2023-12-28T02:27:51;6.70;;;2.80;;
74538;SDS011;66042;51.090;-115.340;2023-12-28T02:30:21;3.60;;;1.70;;
74538;SDS011;66042;51.090;-115.340;2023-12-28T02:35:42;1.60;;;1.00;;
74538;SDS011;66042;51.090;-115.340;2023-12-28T02:38:15;2.00;;;0.90;;
74538;SDS011;66042;51.090;-115.340;2023-12-28T02:40:44;1.00;;;0.70;;
74538;SDS011;66042;51.090;-115.340;2023-12-28T02:43:12;0.90;;;0.50;;
74538;SDS011;66042;51.090;-115.340;2023-12-28T02:45:39;3.40;;;1.20;;
74538;SDS011;66042;51.090;-115.340;2023-12-28T02:48:07;3.10;;;1.00;;
74538;SDS011;66042;51.090;-115.340;2023-12-28T02:50:34;5.40;;;1.60;;
74538;SDS011;66042;51.090;-115.340;2023-12-28T02:53:02;4.50;;;1.30;;
74538;SDS011;66042;51.090;-115.340;2023-12-28T02:55:29;1.20;;;0.70;;
74538;SDS011;66042;51.090;-115.340;2023-12-28T02:57:57;2.80;;;0.60;;
74538;SDS011;66042;51.090;-115.340;2023-12-28T03:00:28;3.10;;;0.90;;
74538;SDS011;66042;51.090;-115.340;2023-12-28T03:02:55;1.20;;;0.70;;
74538;SDS011;66042;51.090;-115.340;2023-12-28T03:05:22;1.10;;;0.60;;
74538;SDS011;66042;51.090;-115.340;2023-12-28T03:07:49;1.00;;;0.60;;
74538;SDS011;66042;51.090;-115.340;2023-12-28T03:10:16;1.30;;;0.70;;
74538;SDS011;66042;51.090;-115.340;2023-12-28T03:12:43;0.80;;;0.40;;
74538;SDS011;66042;51.090;-115.340;2023-12-28T03:15:10;1.20;;;0.60;;
74538;SDS011;66042;51.090;-115.340;2023-12-28T03:17:39;2.80;;;0.70;;
74538;SDS011;66042;51.090;-115.340;2023-12-28T03:20:07;3.20;;;0.70;;
74538;SDS011;66042;51.090;-115.340;2023-12-28T03:22:35;1.20;;;0.50;;
74538;SDS011;66042;51.090;-115.340;2023-12-28T03:25:02;2.40;;;0.90;;
74538;SDS011;66042;51.090;-115.340;2023-12-28T03:27:29;1.40;;;0.60;;
74538;SDS011;66042;51.090;-115.340;2023-12-28T03:29:56;2.10;;;0.80;;
74538;SDS011;66042;51.090;-115.340;2023-12-28T03:32:23;1.00;;;0.50;;
74538;SDS011;66042;51.090;-115.340;2023-12-28T03:34:50;1.20;;;0.70;;
74538;SDS011;66042;51.090;-115.340;2023-12-28T03:37:17;0.90;;;0.60;;
74538;SDS011;66042;51.090;-115.340;2023-12-28T03:39:45;1.00;;;0.70;;
74538;SDS011;66042;51.090;-115.340;2023-12-28T03:42:13;1.00;;;0.70;;
74538;SDS011;66042;51.090;-115.340;2023-12-28T03:44:40;1.00;;;0.60;;
74538;SDS011;66042;51.090;-115.340;2023-12-28T03:47:07;1.00;;;0.60;;
74538;SDS011;66042;51.090;-115.340;2023-12-28T03:49:34;0.90;;;0.50;;
74538;SDS011;66042;51.090;-115.340;2023-12-28T03:52:01;1.30;;;0.80;;
74538;SDS011;66042;51.090;-115.340;2023-12-28T03:54:28;1.50;;;0.70;;
74538;SDS011;66042;51.090;-115.340;2023-12-28T03:56:56;1.40;;;0.50;;
74538;SDS011;66042;51.090;-115.340;2023-12-28T03:59:23;1.10;;;0.60;;
74538;SDS011;66042;51.090;-115.340;2023-12-28T04:01:50;1.10;;;0.60;;
74538;SDS011;66042;51.090;-115.340;2023-12-28T04:04:17;1.10;;;0.60;;
74538;SDS011;66042;51.090;-115.340;2023-12-28T04:06:44;1.10;;;0.50;;
74538;SDS011;66042;51.090;-115.340;2023-12-28T04:09:14;2.10;;;0.80;;
74538;SDS011;66042;51.090;-115.340;2023-12-28T04:11:43;1.40;;;0.70;;
74538;SDS011;66042;51.090;-115.340;2023-12-28T04:14:10;2.20;;;0.60;;
74538;SDS011;66042;51.090;-115.340;2023-12-28T04:16:37;1.40;;;0.80;;
74538;SDS011;66042;51.090;-115.340;2023-12-28T04:19:05;1.10;;;0.70;;
74538;SDS011;66042;51.090;-115.340;2023-12-28T04:21:31;1.00;;;0.60;;
74538;SDS011;66042;51.090;-115.340;2023-12-28T04:23:59;1.30;;;0.60;;
74538;SDS011;66042;51.090;-115.340;2023-12-28T04:26:27;0.90;;;0.50;;
74538;SDS011;66042;51.090;-115.340;2023-12-28T04:28:54;1.10;;;0.70;;
74538;SDS011;66042;51.090;-115.340;2023-12-28T04:31:21;1.10;;;0.80;;
74538;SDS011;66042;51.090;-115.340;2023-12-28T04:33:48;1.10;;;0.70;;
74538;SDS011;66042;51.090;-115.340;2023-12-28T04:36:16;1.20;;;0.70;;
74538;SDS011;66042;51.090;-115.340;2023-12-28T04:38:42;2.80;;;1.70;;
74538;SDS011;66042;51.090;-115.340;2023-12-28T04:41:10;1.90;;;1.20;;
74538;SDS011;66042;51.090;-115.340;2023-12-28T04:43:38;1.30;;;0.80;;
74538;SDS011;66042;51.090;-115.340;2023-12-28T04:46:05;2.40;;;1.00;;
74538;SDS011;66042;51.090;-115.340;2023-12-28T04:48:32;1.20;;;0.80;;
74538;SDS011;66042;51.090;-115.340;2023-12-28T04:51:02;0.90;;;0.60;;
74538;SDS011;66042;51.090;-115.340;2023-12-28T04:53:29;1.40;;;0.50;;
74538;SDS011;66042;51.090;-115.340;2023-12-28T04:55:56;1.20;;;0.80;;
74538;SDS011;66042;51.090;-115.340;2023-12-28T04:58:24;0.90;;;0.60;;
74538;SDS011;66042;51.090;-115.340;2023-12-28T05:00:50;0.90;;;0.60;;
74538;SDS011;66042;51.090;-115.340;2023-12-28T05:03:17;1.00;;;0.50;;
74538;SDS011;66042;51.090;-115.340;2023-12-28T05:05:44;1.10;;;0.80;;
74538;SDS011;66042;51.090;-115.340;2023-12-28T05:08:11;1.20;;;0.60;;
74538;SDS011;66042;51.090;-115.340;2023-12-28T05:10:38;0.80;;;0.50;;
74538;SDS011;66042;51.090;-115.340;2023-12-28T05:13:05;1.30;;;0.90;;
74538;SDS011;66042;51.090;-115.340;2023-12-28T05:15:32;0.80;;;0.50;;
74538;SDS011;66042;51.090;-115.340;2023-12-28T05:17:59;1.00;;;0.70;;
74538;SDS011;66042;51.090;-115.340;2023-12-28T05:20:26;1.20;;;0.80;;
74538;SDS011;66042;51.090;-115.340;2023-12-28T05:22:53;0.90;;;0.60;;
74538;SDS011;66042;51.090;-115.340;2023-12-28T05:25:20;1.00;;;0.40;;
74538;SDS011;66042;51.090;-115.340;2023-12-28T05:27:47;1.00;;;0.70;;
74538;SDS011;66042;51.090;-115.340;2023-12-28T05:30:14;2.70;;;0.70;;
74538;SDS011;66042;51.090;-115.340;2023-12-28T05:32:41;1.50;;;0.70;;
74538;SDS011;66042;51.090;-115.340;2023-12-28T05:35:08;1.10;;;0.60;;
74538;SDS011;66042;51.090;-115.340;2023-12-28T05:37:35;0.90;;;0.60;;
74538;SDS011;66042;51.090;-115.340;2023-12-28T05:40:02;1.00;;;0.60;;
74538;SDS011;66042;51.090;-115.340;2023-12-28T05:42:30;1.00;;;0.70;;
74538;SDS011;66042;51.090;-115.340;2023-12-28T05:44:56;1.50;;;0.70;;
74538;SDS011;66042;51.090;-115.340;2023-12-28T05:47:24;1.30;;;0.70;;
74538;SDS011;66042;51.090;-115.340;2023-12-28T05:49:51;1.00;;;0.50;;
74538;SDS011;66042;51.090;-115.340;2023-12-28T05:52:18;1.00;;;0.70;;
74538;SDS011;66042;51.090;-115.340;2023-12-28T05:54:45;1.00;;;0.60;;
74538;SDS011;66042;51.090;-115.340;2023-12-28T05:57:14;1.10;;;0.80;;
74538;SDS011;66042;51.090;-115.340;2023-12-28T05:59:41;1.10;;;0.60;;
74538;SDS011;66042;51.090;-115.340;2023-12-28T06:02:07;1.40;;;0.60;;
74538;SDS011;66042;51.090;-115.340;2023-12-28T06:04:34;1.00;;;0.40;;
74538;SDS011;66042;51.090;-115.340;2023-12-28T06:07:03;4.00;;;0.60;;
74538;SDS011;66042;51.090;-115.340;2023-12-28T06:09:31;1.30;;;0.70;;
74538;SDS011;66042;51.090;-115.340;2023-12-28T06:11:58;1.20;;;0.60;;
74538;SDS011;66042;51.090;-115.340;2023-12-28T06:14:25;0.70;;;0.30;;
74538;SDS011;66042;51.090;-115.340;2023-12-28T06:16:53;1.00;;;0.80;;
74538;SDS011;66042;51.090;-115.340;2023-12-28T06:19:20;1.00;;;0.60;;
74538;SDS011;66042;51.090;-115.340;2023-12-28T06:21:48;1.00;;;0.70;;
74538;SDS011;66042;51.090;-115.340;2023-12-28T06:24:16;1.00;;;0.60;;
74538;SDS011;66042;51.090;-115.340;2023-12-28T06:26:44;0.90;;;0.60;;
74538;SDS011;66042;51.090;-115.340;2023-12-28T06:29:11;0.90;;;0.60;;
74538;SDS011;66042;51.090;-115.340;2023-12-28T06:31:38;0.90;;;0.70;;
74538;SDS011;66042;51.090;-115.340;2023-12-28T06:34:06;0.80;;;0.50;;
74538;SDS011;66042;51.090;-115.340;2023-12-28T06:36:33;0.90;;;0.60;;
74538;SDS011;66042;51.090;-115.340;2023-12-28T06:39:00;0.90;;;0.50;;
74538;SDS011;66042;51.090;-115.340;2023-12-28T06:41:27;1.40;;;1.10;;
74538;SDS011;66042;51.090;-115.340;2023-12-28T06:43:54;1.30;;;1.10;;
74538;SDS011;66042;51.090;-115.340;2023-12-28T06:46:21;1.60;;;1.10;;
74538;SDS011;66042;51.090;-115.340;2023-12-28T06:48:48;1.20;;;0.60;;
74538;SDS011;66042;51.090;-115.340;2023-12-28T06:51:22;1.80;;;0.90;;
74538;SDS011;66042;51.090;-115.340;2023-12-28T06:53:49;1.10;;;0.60;;
74538;SDS011;66042;51.090;-115.340;2023-12-28T06:56:16;1.10;;;0.70;;
74538;SDS011;66042;51.090;-115.340;2023-12-28T06:58:44;1.50;;;0.90;;
74538;SDS011;66042;51.090;-115.340;2023-12-28T07:01:11;1.20;;;0.50;;
74538;SDS011;66042;51.090;-115.340;2023-12-28T07:03:39;0.80;;;0.50;;
74538;SDS011;66042;51.090;-115.340;2023-12-28T07:06:06;1.50;;;0.80;;
74538;SDS011;66042;51.090;-115.340;2023-12-28T07:08:34;1.20;;;0.70;;
74538;SDS011;66042;51.090;-115.340;2023-12-28T07:11:02;1.20;;;0.60;;
74538;SDS011;66042;51.090;-115.340;2023-12-28T07:13:29;1.00;;;0.70;;
74538;SDS011;66042;51.090;-115.340;2023-12-28T07:15:56;1.00;;;0.60;;
74538;SDS011;66042;51.090;-115.340;2023-12-28T07:18:23;0.80;;;0.40;;
74538;SDS011;66042;51.090;-115.340;2023-12-28T07:20:50;0.80;;;0.60;;
74538;SDS011;66042;51.090;-115.340;2023-12-28T07:23:17;1.00;;;0.50;;
74538;SDS011;66042;51.090;-115.340;2023-12-28T07:25:44;0.80;;;0.60;;
74538;SDS011;66042;51.090;-115.340;2023-12-28T07:28:11;1.10;;;0.60;;
74538;SDS011;66042;51.090;-115.340;2023-12-28T07:30:38;1.60;;;0.70;;
74538;SDS011;66042;51.090;-115.340;2023-12-28T07:33:07;1.70;;;0.60;;
74538;SDS011;66042;51.090;-115.340;2023-12-28T07:35:34;1.00;;;0.90;;
74538;SDS011;66042;51.090;-115.340;2023-12-28T07:38:01;2.20;;;0.70;;
74538;SDS011;66042;51.090;-115.340;2023-12-28T07:40:28;1.40;;;0.60;;
74538;SDS011;66042;51.090;-115.340;2023-12-28T07:42:55;0.80;;;0.50;;
74538;SDS011;66042;51.090;-115.340;2023-12-28T07:45:22;1.20;;;0.60;;
74538;SDS011;66042;51.090;-115.340;2023-12-28T07:47:50;1.10;;;0.90;;
74538;SDS011;66042;51.090;-115.340;2023-12-28T07:50:17;1.30;;;0.60;;
74538;SDS011;66042;51.090;-115.340;2023-12-28T07:52:45;0.80;;;0.40;;
74538;SDS011;66042;51.090;-115.340;2023-12-28T07:55:13;1.10;;;0.70;;
74538;SDS011;66042;51.090;-115.340;2023-12-28T07:57:40;0.90;;;0.60;;
74538;SDS011;66042;51.090;-115.340;2023-12-28T08:00:08;1.50;;;0.60;;
74538;SDS011;66042;51.090;-115.340;2023-12-28T08:02:35;0.80;;;0.50;;
74538;SDS011;66042;51.090;-115.340;2023-12-28T08:05:03;0.90;;;0.70;;
74538;SDS011;66042;51.090;-115.340;2023-12-28T08:07:31;0.90;;;0.60;;
74538;SDS011;66042;51.090;-115.340;2023-12-28T08:09:58;1.10;;;0.70;;
74538;SDS011;66042;51.090;-115.340;2023-12-28T08:12:25;1.00;;;0.70;;
74538;SDS011;66042;51.090;-115.340;2023-12-28T08:14:56;1.10;;;0.50;;
74538;SDS011;66042;51.090;-115.340;2023-12-28T08:17:23;0.80;;;0.40;;
74538;SDS011;66042;51.090;-115.340;2023-12-28T08:19:50;0.80;;;0.40;;
74538;SDS011;66042;51.090;-115.340;2023-12-28T08:22:17;0.90;;;0.60;;
74538;SDS011;66042;51.090;-115.340;2023-12-28T08:24:44;1.00;;;0.70;;
74538;SDS011;66042;51.090;-115.340;2023-12-28T08:27:11;0.70;;;0.40;;
74538;SDS011;66042;51.090;-115.340;2023-12-28T08:29:40;1.40;;;0.70;;
74538;SDS011;66042;51.090;-115.340;2023-12-28T08:32:11;0.80;;;0.60;;
74538;SDS011;66042;51.090;-115.340;2023-12-28T08:34:38;1.20;;;0.50;;
74538;SDS011;66042;51.090;-115.340;2023-12-28T08:37:05;1.20;;;0.60;;
74538;SDS011;66042;51.090;-115.340;2023-12-28T08:39:33;0.90;;;0.60;;
74538;SDS011;66042;51.090;-115.340;2023-12-28T08:42:00;0.90;;;0.50;;
74538;SDS011;66042;51.090;-115.340;2023-12-28T08:44:27;0.80;;;0.50;;
74538;SDS011;66042;51.090;-115.340;2023-12-28T08:46:54;1.10;;;0.70;;
74538;SDS011;66042;51.090;-115.340;2023-12-28T08:49:21;1.10;;;0.60;;
74538;SDS011;66042;51.090;-115.340;2023-12-28T08:51:48;0.90;;;0.50;;
74538;SDS011;66042;51.090;-115.340;2023-12-28T08:54:15;0.90;;;0.70;;
74538;SDS011;66042;51.090;-115.340;2023-12-28T08:56:42;0.90;;;0.60;;
74538;SDS011;66042;51.090;-115.340;2023-12-28T08:59:09;1.00;;;0.60;;
74538;SDS011;66042;51.090;-115.340;2023-12-28T09:01:36;0.90;;;0.60;;
74538;SDS011;66042;51.090;-115.340;2023-12-28T09:04:03;0.90;;;0.50;;
74538;SDS011;66042;51.090;-115.340;2023-12-28T09:06:30;0.70;;;0.30;;
74538;SDS011;66042;51.090;-115.340;2023-12-28T09:08:57;1.00;;;0.40;;
74538;SDS011;66042;51.090;-115.340;2023-12-28T09:11:25;1.70;;;0.60;;
74538;SDS011;66042;51.090;-115.340;2023-12-28T09:13:54;1.00;;;0.70;;
74538;SDS011;66042;51.090;-115.340;2023-12-28T09:16:21;0.80;;;0.30;;
74538;SDS011;66042;51.090;-115.340;2023-12-28T09:18:48;1.00;;;0.50;;
74538;SDS011;66042;51.090;-115.340;2023-12-28T09:21:15;0.90;;;0.50;;
74538;SDS011;66042;51.090;-115.340;2023-12-28T09:23:42;0.70;;;0.30;;
74538;SDS011;66042;51.090;-115.340;2023-12-28T09:26:10;0.80;;;0.40;;
74538;SDS011;66042;51.090;-115.340;2023-12-28T09:28:37;0.90;;;0.50;;
74538;SDS011;66042;51.090;-115.340;2023-12-28T09:31:04;0.80;;;0.60;;
74538;SDS011;66042;51.090;-115.340;2023-12-28T09:33:32;0.80;;;0.40;;
74538;SDS011;66042;51.090;-115.340;2023-12-28T09:36:00;0.80;;;0.50;;
74538;SDS011;66042;51.090;-115.340;2023-12-28T09:38:30;1.10;;;0.70;;
74538;SDS011;66042;51.090;-115.340;2023-12-28T09:40:58;0.80;;;0.50;;
74538;SDS011;66042;51.090;-115.340;2023-12-28T09:43:46;1.00;;;0.80;;
74538;SDS011;66042;51.090;-115.340;2023-12-28T09:46:47;0.90;;;0.40;;
74538;SDS011;66042;51.090;-115.340;2023-12-28T09:49:16;0.90;;;0.50;;
74538;SDS011;66042;51.090;-115.340;2023-12-28T09:51:46;0.90;;;0.50;;
74538;SDS011;66042;51.090;-115.340;2023-12-28T09:54:14;0.90;;;0.60;;
74538;SDS011;66042;51.090;-115.340;2023-12-28T09:56:41;1.30;;;0.60;;
74538;SDS011;66042;51.090;-115.340;2023-12-28T09:59:08;0.90;;;0.60;;
74538;SDS011;66042;51.090;-115.340;2023-12-28T10:01:37;1.00;;;0.50;;
74538;SDS011;66042;51.090;-115.340;2023-12-28T10:04:05;0.80;;;0.60;;
74538;SDS011;66042;51.090;-115.340;2023-12-28T10:06:34;0.70;;;0.40;;
74538;SDS011;66042;51.090;-115.340;2023-12-28T10:09:01;0.90;;;0.60;;
74538;SDS011;66042;51.090;-115.340;2023-12-28T10:11:29;0.70;;;0.50;;
74538;SDS011;66042;51.090;-115.340;2023-12-28T10:13:56;0.90;;;0.60;;
74538;SDS011;66042;51.090;-115.340;2023-12-28T10:16:24;1.00;;;0.80;;
74538;SDS011;66042;51.090;-115.340;2023-12-28T10:18:52;1.00;;;0.70;;
74538;SDS011;66042;51.090;-115.340;2023-12-28T10:21:23;0.90;;;0.70;;
74538;SDS011;66042;51.090;-115.340;2023-12-28T10:23:50;1.10;;;0.80;;
74538;SDS011;66042;51.090;-115.340;2023-12-28T10:26:21;1.20;;;0.60;;
74538;SDS011;66042;51.090;-115.340;2023-12-28T10:28:48;1.20;;;0.90;;
74538;SDS011;66042;51.090;-115.340;2023-12-28T10:31:15;1.10;;;0.80;;
74538;SDS011;66042;51.090;-115.340;2023-12-28T10:33:42;0.90;;;0.60;;
74538;SDS011;66042;51.090;-115.340;2023-12-28T10:36:12;0.80;;;0.40;;
74538;SDS011;66042;51.090;-115.340;2023-12-28T10:38:43;1.00;;;0.70;;
74538;SDS011;66042;51.090;-115.340;2023-12-28T10:41:14;0.90;;;0.50;;
74538;SDS011;66042;51.090;-115.340;2023-12-28T10:43:46;1.00;;;0.50;;
74538;SDS011;66042;51.090;-115.340;2023-12-28T10:46:31;0.80;;;0.50;;
74538;SDS011;66042;51.090;-115.340;2023-12-28T10:49:27;0.70;;;0.40;;
74538;SDS011;66042;51.090;-115.340;2023-12-28T10:52:00;0.70;;;0.40;;
74538;SDS011;66042;51.090;-115.340;2023-12-28T10:55:10;0.80;;;0.60;;
74538;SDS011;66042;51.090;-115.340;2023-12-28T10:58:06;0.80;;;0.50;;
74538;SDS011;66042;51.090;-115.340;2023-12-28T11:00:43;1.00;;;0.50;;
74538;SDS011;66042;51.090;-115.340;2023-12-28T11:03:20;0.60;;;0.20;;
74538;SDS011;66042;51.090;-115.340;2023-12-28T11:05:51;0.70;;;0.30;;
74538;SDS011;66042;51.090;-115.340;2023-12-28T11:08:19;0.90;;;0.70;;
74538;SDS011;66042;51.090;-115.340;2023-12-28T11:10:50;1.00;;;0.40;;
74538;SDS011;66042;51.090;-115.340;2023-12-28T11:13:20;1.20;;;0.60;;
74538;SDS011;66042;51.090;-115.340;2023-12-28T11:15:48;0.60;;;0.30;;
74538;SDS011;66042;51.090;-115.340;2023-12-28T11:18:18;1.10;;;0.70;;
74538;SDS011;66042;51.090;-115.340;2023-12-28T11:20:47;0.70;;;0.40;;
74538;SDS011;66042;51.090;-115.340;2023-12-28T11:23:16;0.70;;;0.40;;
74538;SDS011;66042;51.090;-115.340;2023-12-28T11:25:43;0.80;;;0.60;;
74538;SDS011;66042;51.090;-115.340;2023-12-28T11:28:11;1.10;;;0.50;;
74538;SDS011;66042;51.090;-115.340;2023-12-28T11:30:39;1.10;;;0.60;;
74538;SDS011;66042;51.090;-115.340;2023-12-28T11:33:11;0.90;;;0.40;;
74538;SDS011;66042;51.090;-115.340;2023-12-28T11:35:40;0.70;;;0.40;;
74538;SDS011;66042;51.090;-115.340;2023-12-28T11:38:09;0.70;;;0.40;;
74538;SDS011;66042;51.090;-115.340;2023-12-28T11:40:47;1.20;;;0.70;;
74538;SDS011;66042;51.090;-115.340;2023-12-28T11:43:20;0.90;;;0.50;;
74538;SDS011;66042;51.090;-115.340;2023-12-28T11:45:54;1.00;;;0.60;;
74538;SDS011;66042;51.090;-115.340;2023-12-28T11:48:28;0.70;;;0.30;;
74538;SDS011;66042;51.090;-115.340;2023-12-28T11:51:00;0.90;;;0.50;;
74538;SDS011;66042;51.090;-115.340;2023-12-28T11:53:27;0.70;;;0.30;;
74538;SDS011;66042;51.090;-115.340;2023-12-28T11:56:03;0.90;;;0.60;;
74538;SDS011;66042;51.090;-115.340;2023-12-28T11:58:35;1.20;;;0.70;;
74538;SDS011;66042;51.090;-115.340;2023-12-28T12:01:02;0.80;;;0.50;;
74538;SDS011;66042;51.090;-115.340;2023-12-28T12:03:30;0.80;;;0.50;;
74538;SDS011;66042;51.090;-115.340;2023-12-28T12:05:57;0.90;;;0.50;;
74538;SDS011;66042;51.090;-115.340;2023-12-28T12:08:24;1.00;;;0.60;;
74538;SDS011;66042;51.090;-115.340;2023-12-28T12:11:01;0.90;;;0.60;;
74538;SDS011;66042;51.090;-115.340;2023-12-28T12:13:31;1.10;;;0.50;;
74538;SDS011;66042;51.090;-115.340;2023-12-28T12:15:59;0.80;;;0.50;;
74538;SDS011;66042;51.090;-115.340;2023-12-28T12:18:34;1.10;;;0.90;;
74538;SDS011;66042;51.090;-115.340;2023-12-28T12:21:02;1.40;;;0.80;;
74538;SDS011;66042;51.090;-115.340;2023-12-28T12:23:29;1.80;;;0.80;;
74538;SDS011;66042;51.090;-115.340;2023-12-28T12:25:57;1.00;;;0.60;;
74538;SDS011;66042;51.090;-115.340;2023-12-28T12:28:24;0.80;;;0.50;;
74538;SDS011;66042;51.090;-115.340;2023-12-28T12:33:21;0.80;;;0.50;;
74538;SDS011;66042;51.090;-115.340;2023-12-28T12:35:49;1.20;;;0.50;;
74538;SDS011;66042;51.090;-115.340;2023-12-28T12:38:16;0.70;;;0.30;;
74538;SDS011;66042;51.090;-115.340;2023-12-28T12:40:44;1.00;;;0.50;;
74538;SDS011;66042;51.090;-115.340;2023-12-28T12:43:11;2.60;;;0.40;;
74538;SDS011;66042;51.090;-115.340;2023-12-28T12:45:39;1.20;;;0.70;;
74538;SDS011;66042;51.090;-115.340;2023-12-28T12:48:06;1.00;;;0.70;;
74538;SDS011;66042;51.090;-115.340;2023-12-28T12:50:34;0.90;;;0.40;;
74538;SDS011;66042;51.090;-115.340;2023-12-28T12:53:01;0.80;;;0.50;;
74538;SDS011;66042;51.090;-115.340;2023-12-28T12:55:32;0.90;;;0.50;;
74538;SDS011;66042;51.090;-115.340;2023-12-28T12:57:59;1.10;;;0.60;;
74538;SDS011;66042;51.090;-115.340;2023-12-28T13:00:27;0.90;;;0.50;;
74538;SDS011;66042;51.090;-115.340;2023-12-28T13:02:54;1.50;;;0.50;;
74538;SDS011;66042;51.090;-115.340;2023-12-28T13:05:23;0.70;;;0.30;;
74538;SDS011;66042;51.090;-115.340;2023-12-28T13:07:51;1.00;;;0.50;;
74538;SDS011;66042;51.090;-115.340;2023-12-28T13:10:18;0.90;;;0.50;;
74538;SDS011;66042;51.090;-115.340;2023-12-28T13:12:46;1.00;;;0.70;;
74538;SDS011;66042;51.090;-115.340;2023-12-28T13:15:13;1.30;;;0.70;;
74538;SDS011;66042;51.090;-115.340;2023-12-28T13:17:39;1.00;;;0.50;;
74538;SDS011;66042;51.090;-115.340;2023-12-28T13:20:07;1.10;;;0.50;;
74538;SDS011;66042;51.090;-115.340;2023-12-28T13:22:35;1.10;;;0.50;;
74538;SDS011;66042;51.090;-115.340;2023-12-28T13:25:02;0.90;;;0.50;;
74538;SDS011;66042;51.090;-115.340;2023-12-28T13:27:30;1.20;;;0.40;;
74538;SDS011;66042;51.090;-115.340;2023-12-28T13:29:58;1.30;;;0.70;;
74538;SDS011;66042;51.090;-115.340;2023-12-28T13:32:24;0.70;;;0.30;;
74538;SDS011;66042;51.090;-115.340;2023-12-28T13:34:52;1.20;;;0.40;;
74538;SDS011;66042;51.090;-115.340;2023-12-28T13:37:19;0.90;;;0.60;;
74538;SDS011;66042;51.090;-115.340;2023-12-28T13:39:46;1.30;;;0.90;;
74538;SDS011;66042;51.090;-115.340;2023-12-28T13:42:13;1.20;;;0.60;;
74538;SDS011;66042;51.090;-115.340;2023-12-28T13:44:40;1.20;;;0.70;;
74538;SDS011;66042;51.090;-115.340;2023-12-28T13:47:09;1.00;;;0.70;;
74538;SDS011;66042;51.090;-115.340;2023-12-28T13:49:36;0.90;;;0.40;;
74538;SDS011;66042;51.090;-115.340;2023-12-28T13:52:04;1.00;;;0.50;;
74538;SDS011;66042;51.090;-115.340;2023-12-28T13:54:31;0.90;;;0.50;;
74538;SDS011;66042;51.090;-115.340;2023-12-28T13:56:58;0.90;;;0.40;;
74538;SDS011;66042;51.090;-115.340;2023-12-28T13:59:27;0.90;;;0.50;;
74538;SDS011;66042;51.090;-115.340;2023-12-28T14:01:55;0.90;;;0.40;;
74538;SDS011;66042;51.090;-115.340;2023-12-28T14:04:24;0.70;;;0.30;;
74538;SDS011;66042;51.090;-115.340;2023-12-28T14:06:51;1.00;;;0.60;;
74538;SDS011;66042;51.090;-115.340;2023-12-28T14:09:18;0.80;;;0.50;;
74538;SDS011;66042;51.090;-115.340;2023-12-28T14:11:47;1.70;;;1.00;;
74538;SDS011;66042;51.090;-115.340;2023-12-28T14:14:14;0.90;;;0.50;;
74538;SDS011;66042;51.090;-115.340;2023-12-28T14:16:41;1.30;;;0.80;;
74538;SDS011;66042;51.090;-115.340;2023-12-28T14:19:08;2.10;;;0.60;;
74538;SDS011;66042;51.090;-115.340;2023-12-28T14:21:37;1.00;;;0.40;;